createdAt,value
2022-09-12T00:03:27.533Z,98362.41
2022-09-12T00:06:51.114Z,98363.63
2022-09-12T00:10:14.641Z,98355.22
2022-09-12T00:13:41.649Z,98356.47
2022-09-12T00:18:21.702Z,98361.34
2022-09-12T00:21:45.363Z,98363.75
2022-09-12T00:25:10.818Z,98361.63
2022-09-12T00:28:35.935Z,98363.72
2022-09-12T00:33:25.196Z,98361.53
2022-09-12T00:36:49.473Z,98356.47
2022-09-12T00:40:13.093Z,98355.81
2022-09-12T00:43:39.642Z,98366.09
2022-09-12T00:48:32.313Z,98357.03
2022-09-12T00:52:00.721Z,98355.19
2022-09-12T00:55:26.659Z,98349.75
2022-09-12T00:58:55.421Z,98345.41
2022-09-12T01:03:29.079Z,98341.38
2022-09-12T01:06:53.773Z,98343.66
2022-09-12T01:10:17.457Z,98339.78
2022-09-12T01:13:40.957Z,98331.47
2022-09-12T01:18:30.944Z,98340.31
2022-09-12T01:22:12.458Z,98327.59
2022-09-12T01:25:44.935Z,98320.66
2022-09-12T01:29:25.649Z,98330.31
2022-09-12T01:33:40.972Z,98321.03
2022-09-12T01:37:15.507Z,98318.19
2022-09-12T01:40:46.753Z,98291.75
2022-09-12T01:44:16.061Z,98319.66
2022-09-12T01:48:23.203Z,98317.53
2022-09-12T01:51:56.991Z,98297.19
2022-09-12T01:55:24.741Z,98307.56
2022-09-12T01:58:52.392Z,98307.47
2022-09-12T02:03:30.981Z,98301.53
2022-09-12T02:06:57.918Z,98304.41
2022-09-12T02:10:32.929Z,98302.34
2022-09-12T02:14:00.471Z,98301.28
2022-09-12T02:18:22.406Z,98311.72
2022-09-12T02:21:49.832Z,98305.69
2022-09-12T02:25:16.861Z,98283.13
2022-09-12T02:28:43.557Z,98299.19
2022-09-12T02:33:28.279Z,98298.22
2022-09-12T02:37:02.424Z,98284.88
2022-09-12T02:40:25.821Z,98282.72
2022-09-12T02:43:51.312Z,98282.44
2022-09-12T02:48:28.608Z,98288.75
2022-09-12T02:51:52.251Z,98276.00
2022-09-12T02:55:16.829Z,98268.03
2022-09-12T02:58:39.854Z,98220.03
2022-09-12T03:03:45.184Z,98275.66
2022-09-12T03:07:14.661Z,98292.34
2022-09-12T03:10:48.837Z,98279.56
2022-09-12T03:14:28.706Z,98277.53
2022-09-12T03:18:40.526Z,98237.94
2022-09-12T03:22:12.305Z,98268.13
2022-09-12T03:25:39.808Z,98268.50
2022-09-12T03:29:05.958Z,98266.16
2022-09-12T03:33:27.121Z,98266.94
2022-09-12T03:36:50.315Z,98272.72
2022-09-12T03:40:13.516Z,98282.28
2022-09-12T03:43:36.507Z,98277.22
2022-09-12T03:48:21.594Z,98280.78
2022-09-12T03:51:44.557Z,98287.41
2022-09-12T03:55:08.519Z,98270.28
2022-09-12T03:58:32.095Z,98279.56
2022-09-12T04:03:24.351Z,98279.66
2022-09-12T04:06:47.264Z,98278.13
2022-09-12T04:10:10.670Z,98287.13
2022-09-12T04:13:33.677Z,98273.94
2022-09-12T04:18:20.368Z,98279.03
2022-09-12T04:21:43.334Z,98287.41
2022-09-12T04:25:07.258Z,98283.31
2022-09-12T04:28:32.539Z,98283.16
2022-09-12T04:33:25.450Z,98276.38
2022-09-12T04:36:48.453Z,98289.91
2022-09-12T04:40:11.651Z,98281.91
2022-09-12T04:43:34.992Z,98295.09
2022-09-12T04:48:23.153Z,98296.72
2022-09-12T04:51:47.425Z,98293.22
2022-09-12T04:55:10.778Z,98296.56
2022-09-12T04:58:36.229Z,98288.19
2022-09-12T05:03:24.025Z,98290.22
2022-09-12T05:06:47.998Z,98304.13
2022-09-12T05:10:12.615Z,98303.44
2022-09-12T05:13:35.623Z,98308.97
2022-09-12T05:18:23.005Z,98316.56
2022-09-12T05:21:46.025Z,98310.75
2022-09-12T05:25:10.634Z,98313.97
2022-09-12T05:28:38.110Z,98318.19
2022-09-12T05:33:25.705Z,98293.03
2022-09-12T05:36:49.151Z,98300.00
2022-09-12T05:40:14.510Z,98312.03
2022-09-12T05:43:38.962Z,98312.19
2022-09-12T05:48:53.732Z,98304.59
2022-09-12T05:52:19.031Z,98331.47
2022-09-12T05:55:41.976Z,98329.72
2022-09-12T05:59:06.731Z,98330.97
2022-09-12T06:03:23.567Z,98343.16
2022-09-12T06:06:48.682Z,98314.13
2022-09-12T06:10:12.050Z,98353.09
2022-09-12T06:13:37.696Z,98355.47
2022-09-12T06:18:21.568Z,98339.03
2022-09-12T06:21:46.151Z,98341.31
2022-09-12T06:25:09.799Z,98351.53
2022-09-12T06:28:33.757Z,98347.63
2022-09-12T06:33:21.878Z,98342.84
2022-09-12T06:36:46.945Z,98340.72
2022-09-12T06:40:11.118Z,98347.19
2022-09-12T06:43:34.499Z,98347.81
2022-09-12T06:48:23.250Z,98345.53
2022-09-12T06:51:46.272Z,98306.84
2022-09-12T06:55:09.967Z,98340.06
2022-09-12T06:58:33.984Z,98346.34
2022-09-12T07:03:23.152Z,98347.53
2022-09-12T07:06:46.095Z,98321.81
2022-09-12T07:10:11.855Z,98341.69
2022-09-12T07:13:34.783Z,98356.00
2022-09-12T07:18:23.873Z,98324.25
2022-09-12T07:21:46.862Z,98348.53
2022-09-12T07:25:10.055Z,98354.97
2022-09-12T07:28:34.526Z,98345.94
2022-09-12T07:33:29.266Z,98350.44
2022-09-12T07:36:52.623Z,98351.13
2022-09-12T07:40:15.679Z,98349.31
2022-09-12T07:43:38.729Z,98362.63
2022-09-12T07:48:23.208Z,98360.94
2022-09-12T07:51:27.773Z,98367.56
2022-09-12T07:54:34.238Z,98375.75
2022-09-12T07:57:37.786Z,98374.81
2022-09-12T08:00:41.307Z,98383.44
2022-09-12T08:03:48.060Z,98374.50
2022-09-12T08:06:51.680Z,98353.09
2022-09-12T08:09:54.941Z,98352.78
2022-09-12T08:12:58.790Z,98346.41
2022-09-12T08:16:04.585Z,98343.22
2022-09-12T08:19:09.051Z,98349.69
2022-09-12T08:22:12.357Z,98337.91
2022-09-12T08:25:15.837Z,98330.59
2022-09-12T08:28:18.992Z,98327.31
2022-09-12T08:31:23.858Z,98329.84
2022-09-12T08:34:28.337Z,98307.22
2022-09-12T08:37:31.900Z,98328.06
2022-09-12T08:40:45.618Z,98320.53
2022-09-12T08:44:06.998Z,98306.56
2022-09-12T08:47:22.965Z,98309.19
2022-09-12T08:50:30.872Z,98307.78
2022-09-12T08:53:37.723Z,98303.22
2022-09-12T08:56:45.999Z,98295.94
2022-09-12T08:59:53.613Z,98290.28
2022-09-12T09:03:44.486Z,98280.97
2022-09-12T09:07:00.295Z,98267.66
2022-09-12T09:10:14.014Z,98281.06
2022-09-12T09:13:51.256Z,98284.63
2022-09-12T09:16:56.907Z,98219.94
2022-09-12T09:20:06.941Z,98265.50
2022-09-12T09:23:15.979Z,98267.81
2022-09-12T09:26:27.226Z,98267.94
2022-09-12T09:29:36.923Z,98254.34
2022-09-12T09:34:23.566Z,98260.16
2022-09-12T09:37:37.643Z,98248.91
2022-09-12T09:40:53.804Z,98233.78
2022-09-12T09:43:57.819Z,98225.00
2022-09-12T09:47:02.169Z,98232.16
2022-09-12T09:50:07.440Z,98224.13
2022-09-12T09:53:16.893Z,98203.41
2022-09-12T09:56:29.339Z,98217.34
2022-09-12T09:59:34.690Z,98202.34
2022-09-12T10:02:38.479Z,98195.41
2022-09-12T10:05:48.950Z,98151.88
2022-09-12T10:08:52.487Z,98186.88
2022-09-12T10:11:57.134Z,98187.16
2022-09-12T10:15:03.693Z,98188.13
2022-09-12T10:18:06.969Z,98184.06
2022-09-12T10:21:18.863Z,98179.66
2022-09-12T10:24:25.489Z,98187.41
2022-09-12T10:27:32.080Z,98163.03
2022-09-12T10:30:35.441Z,98173.28
2022-09-12T10:34:34.243Z,98173.47
2022-09-12T10:37:53.670Z,98161.84
2022-09-12T10:41:00.273Z,98161.47
2022-09-12T10:44:09.817Z,98153.53
2022-09-12T10:47:24.555Z,98162.03
2022-09-12T10:50:31.482Z,98169.63
2022-09-12T10:53:42.303Z,98144.63
2022-09-12T10:56:54.255Z,98149.31
2022-09-12T11:00:12.726Z,98149.94
2022-09-12T11:03:17.827Z,98140.69
2022-09-12T11:06:31.269Z,98150.06
2022-09-12T11:09:44.860Z,98139.78
2022-09-12T11:12:58.152Z,98144.53
2022-09-12T11:16:13.616Z,98136.81
2022-09-12T11:19:43.215Z,98130.00
2022-09-12T11:23:08.513Z,98132.91
2022-09-12T11:26:26.149Z,98137.34
2022-09-12T11:29:41.179Z,98131.72
2022-09-12T11:33:06.582Z,98140.53
2022-09-12T11:36:25.546Z,98129.47
2022-09-12T11:39:35.235Z,98124.97
2022-09-12T11:42:41.402Z,98131.25
2022-09-12T11:45:47.107Z,98117.47
2022-09-12T11:48:55.938Z,98115.09
2022-09-12T11:52:05.359Z,98118.38
2022-09-12T11:55:17.123Z,98117.31
2022-09-12T11:58:25.959Z,98110.50
2022-09-12T12:01:38.827Z,98103.81
2022-09-12T12:05:09.363Z,98094.44
2022-09-12T12:08:14.593Z,98102.94
2022-09-12T12:11:29.241Z,98078.09
2022-09-12T12:14:44.184Z,98089.44
2022-09-12T12:18:00.853Z,98102.97
2022-09-12T12:21:22.752Z,98097.84
2022-09-12T12:24:29.101Z,98089.34
2022-09-12T12:27:54.406Z,98090.31
2022-09-12T12:31:03.430Z,98083.88
2022-09-12T12:34:23.887Z,98070.03
2022-09-12T12:37:51.191Z,98070.88
2022-09-12T12:40:54.522Z,98026.44
2022-09-12T12:43:57.737Z,98077.72
2022-09-12T12:47:19.685Z,98060.69
2022-09-12T12:50:26.428Z,98053.41
2022-09-12T12:53:29.764Z,98057.06
2022-09-12T12:56:40.820Z,98055.13
2022-09-12T12:59:49.987Z,98050.53
2022-09-12T13:02:59.674Z,98056.91
2022-09-12T13:06:07.248Z,98051.38
2022-09-12T13:09:18.913Z,98044.56
2022-09-12T13:12:24.962Z,98041.25
2022-09-12T13:15:51.252Z,98031.63
2022-09-12T13:18:56.016Z,98027.41
2022-09-12T13:22:02.334Z,98021.03
2022-09-12T13:25:20.286Z,98020.59
2022-09-12T13:28:24.131Z,98009.09
2022-09-12T13:31:32.248Z,98004.78
2022-09-12T13:34:52.196Z,98023.47
2022-09-12T13:38:04.227Z,98023.53
2022-09-12T13:41:26.615Z,98017.44
2022-09-12T13:44:31.880Z,98011.19
2022-09-12T13:47:39.209Z,98015.47
2022-09-12T13:50:49.990Z,98001.66
2022-09-12T13:53:57.398Z,98003.84
2022-09-12T13:57:02.611Z,97982.91
2022-09-12T14:00:14.008Z,97987.50
2022-09-12T14:03:45.554Z,97995.53
2022-09-12T14:06:52.048Z,97987.34
2022-09-12T14:09:59.305Z,97981.78
2022-09-12T14:13:05.495Z,97986.38
2022-09-12T14:16:12.344Z,97981.13
2022-09-12T14:19:18.571Z,97986.72
2022-09-12T14:22:23.922Z,97980.59
2022-09-12T14:25:34.290Z,97974.56
2022-09-12T14:28:37.766Z,97977.84
2022-09-12T14:31:41.343Z,97975.03
2022-09-12T14:35:22.081Z,97966.44
2022-09-12T14:38:38.283Z,97963.97
2022-09-12T14:41:43.212Z,97963.06
2022-09-12T14:44:56.160Z,97955.91
2022-09-12T14:48:01.238Z,97959.06
2022-09-12T14:51:06.142Z,97954.16
2022-09-12T14:54:44.447Z,97954.16
2022-09-12T14:57:50.480Z,97960.63
2022-09-12T15:00:59.951Z,97949.22
2022-09-12T15:04:03.796Z,97876.75
2022-09-12T15:07:15.559Z,97943.69
2022-09-12T15:10:25.280Z,97945.28
2022-09-12T15:13:32.075Z,97951.00
2022-09-12T15:16:35.296Z,97943.28
2022-09-12T15:19:38.531Z,97944.03
2022-09-12T15:22:42.815Z,97927.56
2022-09-12T15:25:46.351Z,97943.88
2022-09-12T15:28:51.370Z,97931.84
2022-09-12T15:34:16.233Z,97924.13
2022-09-12T15:37:21.280Z,97930.00
2022-09-12T15:40:26.582Z,97928.91
2022-09-12T15:43:29.803Z,97921.81
2022-09-12T15:46:33.023Z,97925.50
2022-09-12T15:49:37.571Z,97919.56
2022-09-12T15:52:41.319Z,97896.16
2022-09-12T15:55:45.712Z,97903.19
2022-09-12T15:59:05.210Z,97909.84
2022-09-12T16:02:10.407Z,97907.06
2022-09-12T16:05:17.078Z,97907.66
2022-09-12T16:08:20.337Z,97912.38
2022-09-12T16:11:25.801Z,97922.16
2022-09-12T16:14:28.997Z,97907.38
2022-09-12T16:17:32.122Z,97915.69
2022-09-12T16:20:36.670Z,97904.84
2022-09-12T16:23:40.441Z,97899.88
2022-09-12T16:26:43.771Z,97906.00
2022-09-12T16:29:47.436Z,97843.28
2022-09-12T16:32:52.604Z,97906.00
2022-09-12T16:36:03.811Z,97898.59
2022-09-12T16:39:07.230Z,97895.81
2022-09-12T16:42:10.371Z,97901.00
2022-09-12T16:45:14.419Z,97874.44
2022-09-12T16:48:17.501Z,97891.44
2022-09-12T16:54:32.642Z,97880.81
2022-09-12T16:57:35.878Z,97858.13
2022-09-12T17:00:39.104Z,97883.16
2022-09-12T17:03:42.617Z,97852.59
2022-09-12T17:06:45.809Z,97872.53
2022-09-12T17:09:50.405Z,97871.59
2022-09-12T17:16:06.710Z,97855.34
2022-09-12T17:19:14.863Z,97879.38
2022-09-12T17:22:17.843Z,97870.75
2022-09-12T17:25:22.409Z,97873.13
2022-09-12T17:28:25.520Z,97873.28
2022-09-12T17:31:29.088Z,97866.72
2022-09-12T17:34:32.788Z,97870.84
2022-09-12T17:37:36.280Z,97857.41
2022-09-12T17:40:58.579Z,97870.34
2022-09-12T17:44:03.558Z,97871.94
2022-09-12T17:47:07.001Z,97884.09
2022-09-12T17:50:30.891Z,97872.16
2022-09-12T17:53:34.539Z,97879.94
2022-09-12T17:56:39.698Z,97890.09
2022-09-12T17:59:42.883Z,97900.25
2022-09-12T18:02:46.647Z,97907.72
2022-09-12T18:05:56.518Z,97910.38
2022-09-12T18:09:01.071Z,97903.09
2022-09-12T18:12:06.336Z,97908.69
2022-09-12T18:15:10.772Z,97900.13
2022-09-12T18:18:14.085Z,97912.72
2022-09-12T18:21:17.663Z,97908.66
2022-09-12T18:24:21.225Z,97902.25
2022-09-12T18:27:25.790Z,97902.50
2022-09-12T18:30:31.095Z,97913.84
2022-09-12T18:33:35.236Z,97916.50
2022-09-12T18:36:38.336Z,97917.38
2022-09-12T18:39:42.138Z,97914.03
2022-09-12T18:42:46.729Z,97917.03
2022-09-12T18:45:49.860Z,97924.50
2022-09-12T18:48:55.429Z,97923.56
2022-09-12T18:51:58.576Z,97932.84
2022-09-12T18:55:01.785Z,97940.03
2022-09-12T18:58:06.451Z,97930.16
2022-09-12T19:01:11.083Z,97927.13
2022-09-12T19:04:16.384Z,97927.09
2022-09-12T19:07:19.878Z,97919.31
2022-09-12T19:10:22.963Z,97921.66
2022-09-12T19:13:27.874Z,97929.84
2022-09-12T19:16:31.204Z,97908.50
2022-09-12T19:19:37.653Z,97941.78
2022-09-12T19:22:44.244Z,97943.63
2022-09-12T19:25:56.841Z,97937.06
2022-09-12T19:29:02.968Z,97942.66
2022-09-12T19:32:06.465Z,97934.88
2022-09-12T19:35:12.872Z,97938.75
2022-09-12T19:38:16.437Z,97922.16
2022-09-12T19:41:20.396Z,97930.53
2022-09-12T19:44:27.071Z,97931.22
2022-09-12T19:47:30.278Z,97930.19
2022-09-12T19:50:34.129Z,97928.09
2022-09-12T19:53:38.234Z,97935.00
2022-09-12T19:56:41.648Z,97932.50
2022-09-12T19:59:46.189Z,97942.09
2022-09-12T20:02:52.425Z,97941.47
2022-09-12T20:05:55.599Z,97931.84
2022-09-12T20:08:59.001Z,97939.56
2022-09-12T20:12:02.631Z,97943.53
2022-09-12T20:15:11.961Z,97947.94
2022-09-12T20:18:21.266Z,97947.72
2022-09-12T20:21:38.483Z,97947.66
2022-09-12T20:24:51.270Z,97951.72
2022-09-12T20:28:00.443Z,97939.63
2022-09-12T20:31:12.144Z,97924.69
2022-09-12T20:34:23.648Z,97949.31
2022-09-12T20:37:31.897Z,97945.63
2022-09-12T20:40:41.710Z,97942.34
2022-09-12T20:43:59.563Z,97946.16
2022-09-12T20:47:14.393Z,97953.44
2022-09-12T20:50:29.233Z,97945.94
2022-09-12T20:53:40.423Z,97953.16
2022-09-12T20:56:43.762Z,97939.06
2022-09-12T20:59:46.939Z,97944.09
2022-09-12T21:02:52.548Z,97944.16
2022-09-12T21:05:55.890Z,97945.00
2022-09-12T21:08:59.830Z,97951.59
2022-09-12T21:12:03.331Z,97951.25
2022-09-12T21:15:07.274Z,97953.47
2022-09-12T21:18:11.724Z,97952.38
2022-09-12T21:21:16.662Z,97937.81
2022-09-12T21:24:20.029Z,97946.16
2022-09-12T21:27:23.132Z,97952.72
2022-09-12T21:34:16.012Z,97949.78
2022-09-12T21:37:19.212Z,97945.69
2022-09-12T21:40:22.448Z,97960.00
2022-09-12T21:43:25.570Z,97962.72
2022-09-12T21:46:28.880Z,97966.06
2022-09-12T21:49:34.542Z,97959.47
2022-09-12T21:52:38.042Z,97959.56
2022-09-12T21:55:41.589Z,97952.41
2022-09-12T21:58:45.056Z,97951.38
2022-09-12T22:01:48.200Z,97955.00
2022-09-12T22:04:52.764Z,97946.44
2022-09-12T22:07:55.887Z,97944.31
2022-09-12T22:11:00.924Z,97942.72
2022-09-12T22:14:04.001Z,97942.50
2022-09-12T22:17:08.104Z,97931.19
2022-09-12T22:20:13.124Z,97925.31
2022-09-12T22:23:33.923Z,97926.81
2022-09-12T22:26:42.402Z,97923.75
2022-09-12T22:29:46.521Z,97900.69
2022-09-12T22:32:51.089Z,97919.63
2022-09-12T22:35:55.592Z,97862.41
2022-09-12T22:38:58.931Z,97913.72
2022-09-12T22:42:03.706Z,97912.78
2022-09-12T22:45:08.660Z,97909.53
2022-09-12T22:48:11.789Z,97917.25
2022-09-12T22:51:16.306Z,97917.41
2022-09-12T22:54:19.733Z,97914.53
2022-09-12T22:57:22.789Z,97911.66
2022-09-12T23:00:27.695Z,97917.41
2022-09-12T23:03:31.532Z,97913.16
2022-09-12T23:06:36.103Z,97909.72
2022-09-12T23:09:39.368Z,97907.94
2022-09-12T23:12:42.603Z,97893.06
2022-09-12T23:15:45.729Z,97884.34
2022-09-12T23:18:49.522Z,97865.75
2022-09-12T23:21:54.125Z,97825.97
2022-09-12T23:24:57.285Z,97871.69
2022-09-12T23:28:00.482Z,97871.31
2022-09-12T23:31:04.794Z,97874.13
2022-09-12T23:34:09.205Z,97870.41
2022-09-12T23:37:13.909Z,97879.03
2022-09-12T23:40:17.695Z,97871.00
2022-09-12T23:43:21.007Z,97866.94
2022-09-12T23:46:24.418Z,97875.31
2022-09-12T23:49:27.687Z,97873.91
2022-09-12T23:52:32.194Z,97879.69
2022-09-12T23:55:35.288Z,97878.00
2022-09-12T23:58:38.656Z,97878.94
